sensor_id;sensor_type;location;lat;lon;timestamp;P1;durP1;ratioP1;P2;durP2;ratioP2
32214;SDS011;18708;53.124;23.190;2023-06-19T00:01:29;8.27;;;7.47;;
32214;SDS011;18708;53.124;23.190;2023-06-19T00:03:55;7.20;;;6.50;;
32214;SDS011;18708;53.124;23.190;2023-06-19T00:06:20;12.07;;;9.07;;
32214;SDS011;18708;53.124;23.190;2023-06-19T00:08:46;8.15;;;6.60;;
32214;SDS011;18708;53.124;23.190;2023-06-19T00:11:11;7.80;;;6.80;;
32214;SDS011;18708;53.124;23.190;2023-06-19T00:13:37;7.38;;;6.68;;
32214;SDS011;18708;53.124;23.190;2023-06-19T00:16:03;7.18;;;6.47;;
32214;SDS011;18708;53.124;23.190;2023-06-19T00:18:29;11.30;;;9.75;;
32214;SDS011;18708;53.124;23.190;2023-06-19T00:20:55;8.18;;;6.97;;
32214;SDS011;18708;53.124;23.190;2023-06-19T00:23:24;7.28;;;6.57;;
32214;SDS011;18708;53.124;23.190;2023-06-19T00:25:50;8.55;;;7.22;;
32214;SDS011;18708;53.124;23.190;2023-06-19T00:28:16;10.68;;;7.00;;
32214;SDS011;18708;53.124;23.190;2023-06-19T00:30:44;10.30;;;8.40;;
32214;SDS011;18708;53.124;23.190;2023-06-19T00:33:10;8.23;;;7.43;;
32214;SDS011;18708;53.124;23.190;2023-06-19T00:35:36;11.18;;;7.60;;
32214;SDS011;18708;53.124;23.190;2023-06-19T00:38:02;7.13;;;6.43;;
32214;SDS011;18708;53.124;23.190;2023-06-19T00:40:29;6.65;;;5.68;;
32214;SDS011;18708;53.124;23.190;2023-06-19T00:42:56;8.38;;;6.80;;
32214;SDS011;18708;53.124;23.190;2023-06-19T00:45:22;9.73;;;8.07;;
32214;SDS011;18708;53.124;23.190;2023-06-19T00:47:54;9.05;;;7.97;;
32214;SDS011;18708;53.124;23.190;2023-06-19T00:50:23;8.20;;;6.93;;
32214;SDS011;18708;53.124;23.190;2023-06-19T00:52:49;7.75;;;6.97;;
32214;SDS011;18708;53.124;23.190;2023-06-19T00:55:16;7.38;;;6.57;;
32214;SDS011;18708;53.124;23.190;2023-06-19T00:57:42;7.63;;;6.68;;
32214;SDS011;18708;53.124;23.190;2023-06-19T01:00:08;7.45;;;6.75;;
32214;SDS011;18708;53.124;23.190;2023-06-19T01:02:37;7.43;;;6.70;;
32214;SDS011;18708;53.124;23.190;2023-06-19T01:05:04;9.05;;;7.07;;
32214;SDS011;18708;53.124;23.190;2023-06-19T01:10:15;10.38;;;6.97;;
32214;SDS011;18708;53.124;23.190;2023-06-19T01:12:46;7.97;;;7.18;;
32214;SDS011;18708;53.124;23.190;2023-06-19T01:15:17;14.90;;;9.73;;
32214;SDS011;18708;53.124;23.190;2023-06-19T01:17:45;7.75;;;6.70;;
32214;SDS011;18708;53.124;23.190;2023-06-19T01:20:12;9.90;;;8.80;;
32214;SDS011;18708;53.124;23.190;2023-06-19T01:22:39;7.55;;;6.75;;
32214;SDS011;18708;53.124;23.190;2023-06-19T01:25:08;15.20;;;9.68;;
32214;SDS011;18708;53.124;23.190;2023-06-19T01:27:34;13.18;;;9.13;;
32214;SDS011;18708;53.124;23.190;2023-06-19T01:30:01;9.73;;;8.18;;
32214;SDS011;18708;53.124;23.190;2023-06-19T01:32:34;17.27;;;10.80;;
32214;SDS011;18708;53.124;23.190;2023-06-19T01:37:29;39.78;;;10.23;;
32214;SDS011;18708;53.124;23.190;2023-06-19T01:39:58;20.52;;;10.05;;
32214;SDS011;18708;53.124;23.190;2023-06-19T01:42:26;17.52;;;7.80;;
32214;SDS011;18708;53.124;23.190;2023-06-19T01:44:52;8.90;;;7.75;;
32214;SDS011;18708;53.124;23.190;2023-06-19T01:47:18;13.05;;;8.48;;
32214;SDS011;18708;53.124;23.190;2023-06-19T01:49:48;9.30;;;8.30;;
32214;SDS011;18708;53.124;23.190;2023-06-19T01:52:14;9.75;;;8.63;;
32214;SDS011;18708;53.124;23.190;2023-06-19T01:54:40;9.95;;;8.70;;
32214;SDS011;18708;53.124;23.190;2023-06-19T01:57:06;8.70;;;7.57;;
32214;SDS011;18708;53.124;23.190;2023-06-19T01:59:32;9.65;;;7.95;;
32214;SDS011;18708;53.124;23.190;2023-06-19T02:01:58;8.02;;;6.88;;
32214;SDS011;18708;53.124;23.190;2023-06-19T02:04:23;8.38;;;7.32;;
32214;SDS011;18708;53.124;23.190;2023-06-19T02:06:49;8.55;;;7.55;;
32214;SDS011;18708;53.124;23.190;2023-06-19T02:09:15;10.05;;;7.00;;
32214;SDS011;18708;53.124;23.190;2023-06-19T02:11:41;8.35;;;7.47;;
32214;SDS011;18708;53.124;23.190;2023-06-19T02:14:07;9.52;;;7.43;;
32214;SDS011;18708;53.124;23.190;2023-06-19T02:16:34;9.27;;;8.00;;
32214;SDS011;18708;53.124;23.190;2023-06-19T02:18:59;12.35;;;9.40;;
32214;SDS011;18708;53.124;23.190;2023-06-19T02:21:25;10.32;;;9.15;;
32214;SDS011;18708;53.124;23.190;2023-06-19T02:23:51;20.67;;;12.50;;
32214;SDS011;18708;53.124;23.190;2023-06-19T02:26:16;11.82;;;9.88;;
32214;SDS011;18708;53.124;23.190;2023-06-19T02:28:42;17.25;;;12.13;;
32214;SDS011;18708;53.124;23.190;2023-06-19T02:31:08;12.85;;;10.63;;
32214;SDS011;18708;53.124;23.190;2023-06-19T02:33:33;10.63;;;8.60;;
32214;SDS011;18708;53.124;23.190;2023-06-19T02:35:59;11.55;;;9.70;;
32214;SDS011;18708;53.124;23.190;2023-06-19T02:38:25;13.30;;;10.05;;
32214;SDS011;18708;53.124;23.190;2023-06-19T02:40:51;12.98;;;10.07;;
32214;SDS011;18708;53.124;23.190;2023-06-19T02:43:17;12.50;;;10.73;;
32214;SDS011;18708;53.124;23.190;2023-06-19T02:45:42;13.45;;;10.88;;
32214;SDS011;18708;53.124;23.190;2023-06-19T02:48:09;12.25;;;9.82;;
32214;SDS011;18708;53.124;23.190;2023-06-19T02:50:35;10.50;;;9.40;;
32214;SDS011;18708;53.124;23.190;2023-06-19T02:53:00;10.88;;;9.30;;
32214;SDS011;18708;53.124;23.190;2023-06-19T02:55:26;12.02;;;10.52;;
32214;SDS011;18708;53.124;23.190;2023-06-19T02:57:52;14.45;;;11.40;;
32214;SDS011;18708;53.124;23.190;2023-06-19T03:00:18;12.80;;;10.80;;
32214;SDS011;18708;53.124;23.190;2023-06-19T03:02:44;8.93;;;7.80;;
32214;SDS011;18708;53.124;23.190;2023-06-19T03:05:13;10.40;;;8.35;;
32214;SDS011;18708;53.124;23.190;2023-06-19T03:07:41;13.57;;;10.95;;
32214;SDS011;18708;53.124;23.190;2023-06-19T03:10:07;11.20;;;9.52;;
32214;SDS011;18708;53.124;23.190;2023-06-19T03:12:33;13.05;;;11.63;;
32214;SDS011;18708;53.124;23.190;2023-06-19T03:14:59;14.18;;;12.00;;
32214;SDS011;18708;53.124;23.190;2023-06-19T03:17:25;12.18;;;10.88;;
32214;SDS011;18708;53.124;23.190;2023-06-19T03:19:50;15.23;;;13.27;;
32214;SDS011;18708;53.124;23.190;2023-06-19T03:22:17;14.65;;;12.55;;
32214;SDS011;18708;53.124;23.190;2023-06-19T03:24:44;13.75;;;11.85;;
32214;SDS011;18708;53.124;23.190;2023-06-19T03:27:10;20.17;;;14.52;;
32214;SDS011;18708;53.124;23.190;2023-06-19T03:29:36;29.13;;;15.45;;
32214;SDS011;18708;53.124;23.190;2023-06-19T03:32:01;50.50;;;19.17;;
32214;SDS011;18708;53.124;23.190;2023-06-19T03:34:27;35.92;;;16.02;;
32214;SDS011;18708;53.124;23.190;2023-06-19T03:36:53;56.88;;;21.55;;
32214;SDS011;18708;53.124;23.190;2023-06-19T03:39:19;69.75;;;22.33;;
32214;SDS011;18708;53.124;23.190;2023-06-19T03:41:44;71.95;;;25.10;;
32214;SDS011;18708;53.124;23.190;2023-06-19T03:44:10;82.88;;;27.20;;
32214;SDS011;18708;53.124;23.190;2023-06-19T03:46:35;86.93;;;27.95;;
32214;SDS011;18708;53.124;23.190;2023-06-19T03:49:01;76.03;;;27.05;;
32214;SDS011;18708;53.124;23.190;2023-06-19T03:51:29;52.63;;;25.60;;
32214;SDS011;18708;53.124;23.190;2023-06-19T03:53:55;49.42;;;26.15;;
32214;SDS011;18708;53.124;23.190;2023-06-19T03:56:21;38.50;;;24.58;;
32214;SDS011;18708;53.124;23.190;2023-06-19T03:58:47;37.20;;;24.58;;
32214;SDS011;18708;53.124;23.190;2023-06-19T04:01:12;47.10;;;24.35;;
32214;SDS011;18708;53.124;23.190;2023-06-19T04:03:38;40.45;;;25.23;;
32214;SDS011;18708;53.124;23.190;2023-06-19T04:06:04;50.90;;;26.48;;
32214;SDS011;18708;53.124;23.190;2023-06-19T04:08:29;41.33;;;23.77;;
32214;SDS011;18708;53.124;23.190;2023-06-19T04:10:56;53.30;;;25.52;;
32214;SDS011;18708;53.124;23.190;2023-06-19T04:13:22;40.97;;;25.63;;
32214;SDS011;18708;53.124;23.190;2023-06-19T04:15:47;39.80;;;24.65;;
32214;SDS011;18708;53.124;23.190;2023-06-19T04:18:13;49.67;;;25.33;;
32214;SDS011;18708;53.124;23.190;2023-06-19T04:20:39;33.55;;;23.48;;
32214;SDS011;18708;53.124;23.190;2023-06-19T04:23:05;40.88;;;25.02;;
32214;SDS011;18708;53.124;23.190;2023-06-19T04:25:31;43.47;;;27.75;;
32214;SDS011;18708;53.124;23.190;2023-06-19T04:27:56;41.95;;;27.88;;
32214;SDS011;18708;53.124;23.190;2023-06-19T04:30:22;36.80;;;27.08;;
32214;SDS011;18708;53.124;23.190;2023-06-19T04:32:48;39.03;;;26.27;;
32214;SDS011;18708;53.124;23.190;2023-06-19T04:35:13;59.33;;;39.20;;
32214;SDS011;18708;53.124;23.190;2023-06-19T04:37:39;41.60;;;29.20;;
32214;SDS011;18708;53.124;23.190;2023-06-19T04:40:05;71.60;;;26.33;;
32214;SDS011;18708;53.124;23.190;2023-06-19T04:42:32;80.80;;;28.35;;
32214;SDS011;18708;53.124;23.190;2023-06-19T04:44:58;51.28;;;27.45;;
32214;SDS011;18708;53.124;23.190;2023-06-19T04:47:24;50.67;;;28.95;;
32214;SDS011;18708;53.124;23.190;2023-06-19T04:49:50;57.65;;;32.10;;
32214;SDS011;18708;53.124;23.190;2023-06-19T04:52:16;47.60;;;29.15;;
32214;SDS011;18708;53.124;23.190;2023-06-19T04:54:42;65.07;;;34.47;;
32214;SDS011;18708;53.124;23.190;2023-06-19T04:57:08;61.50;;;31.92;;
32214;SDS011;18708;53.124;23.190;2023-06-19T04:59:35;56.38;;;32.95;;
32214;SDS011;18708;53.124;23.190;2023-06-19T05:02:01;46.25;;;30.23;;
32214;SDS011;18708;53.124;23.190;2023-06-19T05:04:27;55.65;;;35.53;;
32214;SDS011;18708;53.124;23.190;2023-06-19T05:06:55;66.15;;;34.55;;
32214;SDS011;18708;53.124;23.190;2023-06-19T05:09:21;51.53;;;33.88;;
32214;SDS011;18708;53.124;23.190;2023-06-19T05:11:46;57.67;;;33.90;;
32214;SDS011;18708;53.124;23.190;2023-06-19T05:14:12;59.45;;;35.08;;
32214;SDS011;18708;53.124;23.190;2023-06-19T05:16:39;64.93;;;38.42;;
32214;SDS011;18708;53.124;23.190;2023-06-19T05:19:05;56.17;;;35.03;;
32214;SDS011;18708;53.124;23.190;2023-06-19T05:21:31;75.07;;;39.70;;
32214;SDS011;18708;53.124;23.190;2023-06-19T05:23:56;84.22;;;42.90;;
32214;SDS011;18708;53.124;23.190;2023-06-19T05:26:22;128.30;;;51.63;;
32214;SDS011;18708;53.124;23.190;2023-06-19T05:28:48;127.55;;;54.45;;
32214;SDS011;18708;53.124;23.190;2023-06-19T05:31:15;148.00;;;62.65;;
32214;SDS011;18708;53.124;23.190;2023-06-19T05:33:41;195.35;;;77.88;;
32214;SDS011;18708;53.124;23.190;2023-06-19T05:36:06;171.57;;;77.38;;
32214;SDS011;18708;53.124;23.190;2023-06-19T05:38:32;193.52;;;94.63;;
32214;SDS011;18708;53.124;23.190;2023-06-19T05:40:58;155.05;;;85.97;;
32214;SDS011;18708;53.124;23.190;2023-06-19T05:43:24;111.30;;;71.10;;
32214;SDS011;18708;53.124;23.190;2023-06-19T05:45:51;82.32;;;53.17;;
32214;SDS011;18708;53.124;23.190;2023-06-19T05:48:21;71.53;;;49.55;;
32214;SDS011;18708;53.124;23.190;2023-06-19T05:50:47;72.90;;;47.92;;
32214;SDS011;18708;53.124;23.190;2023-06-19T05:53:12;59.17;;;40.70;;
32214;SDS011;18708;53.124;23.190;2023-06-19T05:55:38;59.88;;;41.60;;
32214;SDS011;18708;53.124;23.190;2023-06-19T05:58:04;51.90;;;36.88;;
32214;SDS011;18708;53.124;23.190;2023-06-19T06:00:30;58.50;;;40.75;;
32214;SDS011;18708;53.124;23.190;2023-06-19T06:02:57;52.75;;;37.25;;
32214;SDS011;18708;53.124;23.190;2023-06-19T06:05:26;40.08;;;29.42;;
32214;SDS011;18708;53.124;23.190;2023-06-19T06:07:52;37.67;;;29.05;;
32214;SDS011;18708;53.124;23.190;2023-06-19T06:10:22;31.55;;;25.42;;
32214;SDS011;18708;53.124;23.190;2023-06-19T06:12:48;24.13;;;17.38;;
32214;SDS011;18708;53.124;23.190;2023-06-19T06:15:14;20.02;;;17.73;;
32214;SDS011;18708;53.124;23.190;2023-06-19T06:17:40;20.42;;;17.35;;
32214;SDS011;18708;53.124;23.190;2023-06-19T06:20:06;18.13;;;16.17;;
32214;SDS011;18708;53.124;23.190;2023-06-19T06:22:41;18.95;;;15.93;;
32214;SDS011;18708;53.124;23.190;2023-06-19T06:25:08;17.50;;;15.63;;
32214;SDS011;18708;53.124;23.190;2023-06-19T06:27:35;17.75;;;15.77;;
32214;SDS011;18708;53.124;23.190;2023-06-19T06:30:01;15.77;;;14.07;;
32214;SDS011;18708;53.124;23.190;2023-06-19T06:32:26;17.58;;;14.88;;
32214;SDS011;18708;53.124;23.190;2023-06-19T06:34:54;15.90;;;14.30;;
32214;SDS011;18708;53.124;23.190;2023-06-19T06:37:19;15.45;;;13.65;;
32214;SDS011;18708;53.124;23.190;2023-06-19T06:39:48;14.38;;;12.27;;
32214;SDS011;18708;53.124;23.190;2023-06-19T06:42:17;15.60;;;13.30;;
32214;SDS011;18708;53.124;23.190;2023-06-19T06:44:42;14.45;;;11.70;;
32214;SDS011;18708;53.124;23.190;2023-06-19T06:47:09;12.15;;;10.57;;
32214;SDS011;18708;53.124;23.190;2023-06-19T06:49:34;9.93;;;8.27;;
32214;SDS011;18708;53.124;23.190;2023-06-19T06:52:03;11.05;;;9.85;;
32214;SDS011;18708;53.124;23.190;2023-06-19T06:54:29;11.73;;;9.38;;
32214;SDS011;18708;53.124;23.190;2023-06-19T06:56:55;10.10;;;8.57;;
32214;SDS011;18708;53.124;23.190;2023-06-19T06:59:24;10.43;;;7.93;;
32214;SDS011;18708;53.124;23.190;2023-06-19T07:01:52;9.60;;;6.25;;
32214;SDS011;18708;53.124;23.190;2023-06-19T07:04:18;8.00;;;7.20;;
32214;SDS011;18708;53.124;23.190;2023-06-19T07:06:44;12.55;;;9.18;;
32214;SDS011;18708;53.124;23.190;2023-06-19T07:09:10;8.85;;;7.82;;
32214;SDS011;18708;53.124;23.190;2023-06-19T07:11:36;9.55;;;8.55;;
32214;SDS011;18708;53.124;23.190;2023-06-19T07:14:02;116.75;;;68.43;;
32214;SDS011;18708;53.124;23.190;2023-06-19T07:16:28;141.80;;;79.57;;
32214;SDS011;18708;53.124;23.190;2023-06-19T07:18:54;14.57;;;11.68;;
32214;SDS011;18708;53.124;23.190;2023-06-19T07:21:20;11.13;;;8.85;;
32214;SDS011;18708;53.124;23.190;2023-06-19T07:23:46;9.25;;;8.23;;
32214;SDS011;18708;53.124;23.190;2023-06-19T07:26:15;9.20;;;7.57;;
32214;SDS011;18708;53.124;23.190;2023-06-19T07:28:41;10.60;;;8.32;;
32214;SDS011;18708;53.124;23.190;2023-06-19T07:31:07;10.27;;;7.90;;
32214;SDS011;18708;53.124;23.190;2023-06-19T07:33:33;7.88;;;7.07;;
32214;SDS011;18708;53.124;23.190;2023-06-19T07:35:59;9.10;;;7.43;;
32214;SDS011;18708;53.124;23.190;2023-06-19T07:38:27;7.78;;;6.97;;
32214;SDS011;18708;53.124;23.190;2023-06-19T07:40:53;8.13;;;6.45;;
32214;SDS011;18708;53.124;23.190;2023-06-19T07:43:19;7.15;;;5.82;;
32214;SDS011;18708;53.124;23.190;2023-06-19T07:45:47;6.78;;;5.68;;
32214;SDS011;18708;53.124;23.190;2023-06-19T07:48:13;7.75;;;6.68;;
32214;SDS011;18708;53.124;23.190;2023-06-19T07:50:39;8.50;;;7.60;;
32214;SDS011;18708;53.124;23.190;2023-06-19T07:53:05;8.57;;;7.47;;
32214;SDS011;18708;53.124;23.190;2023-06-19T07:55:30;8.85;;;7.05;;
32214;SDS011;18708;53.124;23.190;2023-06-19T07:57:56;8.40;;;7.50;;
32214;SDS011;18708;53.124;23.190;2023-06-19T08:00:22;9.20;;;7.00;;
32214;SDS011;18708;53.124;23.190;2023-06-19T08:02:51;6.78;;;5.97;;
32214;SDS011;18708;53.124;23.190;2023-06-19T08:05:16;7.45;;;6.30;;
32214;SDS011;18708;53.124;23.190;2023-06-19T08:07:42;10.07;;;5.60;;
32214;SDS011;18708;53.124;23.190;2023-06-19T08:10:08;6.95;;;6.10;;
32214;SDS011;18708;53.124;23.190;2023-06-19T08:12:34;7.55;;;6.32;;
32214;SDS011;18708;53.124;23.190;2023-06-19T08:15:00;7.07;;;6.10;;
32214;SDS011;18708;53.124;23.190;2023-06-19T08:17:25;6.53;;;5.82;;
32214;SDS011;18708;53.124;23.190;2023-06-19T08:19:51;7.38;;;6.68;;
32214;SDS011;18708;53.124;23.190;2023-06-19T08:22:17;6.28;;;5.68;;
32214;SDS011;18708;53.124;23.190;2023-06-19T08:24:42;6.57;;;5.30;;
32214;SDS011;18708;53.124;23.190;2023-06-19T08:27:08;7.22;;;5.72;;
32214;SDS011;18708;53.124;23.190;2023-06-19T08:29:33;6.65;;;5.88;;
32214;SDS011;18708;53.124;23.190;2023-06-19T08:31:59;6.97;;;5.68;;
32214;SDS011;18708;53.124;23.190;2023-06-19T08:34:26;7.40;;;5.15;;
32214;SDS011;18708;53.124;23.190;2023-06-19T08:36:52;6.15;;;5.50;;
32214;SDS011;18708;53.124;23.190;2023-06-19T08:39:18;6.63;;;5.90;;
32214;SDS011;18708;53.124;23.190;2023-06-19T08:41:45;6.95;;;5.70;;
32214;SDS011;18708;53.124;23.190;2023-06-19T08:44:11;6.07;;;5.47;;
32214;SDS011;18708;53.124;23.190;2023-06-19T08:46:36;6.30;;;5.55;;
32214;SDS011;18708;53.124;23.190;2023-06-19T08:49:02;6.95;;;6.20;;
32214;SDS011;18708;53.124;23.190;2023-06-19T08:51:31;7.65;;;6.40;;
32214;SDS011;18708;53.124;23.190;2023-06-19T08:54:01;6.72;;;6.03;;
32214;SDS011;18708;53.124;23.190;2023-06-19T08:56:31;8.57;;;6.55;;
32214;SDS011;18708;53.124;23.190;2023-06-19T08:59:11;7.15;;;6.00;;
32214;SDS011;18708;53.124;23.190;2023-06-19T09:01:38;8.50;;;5.90;;
32214;SDS011;18708;53.124;23.190;2023-06-19T09:04:11;8.32;;;6.10;;
32214;SDS011;18708;53.124;23.190;2023-06-19T09:09:45;7.35;;;5.97;;
32214;SDS011;18708;53.124;23.190;2023-06-19T09:12:12;6.65;;;5.47;;
32214;SDS011;18708;53.124;23.190;2023-06-19T09:14:40;6.55;;;5.03;;
32214;SDS011;18708;53.124;23.190;2023-06-19T09:17:11;6.28;;;5.68;;
32214;SDS011;18708;53.124;23.190;2023-06-19T09:19:38;5.90;;;5.20;;
32214;SDS011;18708;53.124;23.190;2023-06-19T09:22:12;6.53;;;5.93;;
32214;SDS011;18708;53.124;23.190;2023-06-19T09:24:38;5.50;;;5.00;;
32214;SDS011;18708;53.124;23.190;2023-06-19T09:27:16;5.75;;;5.15;;
32214;SDS011;18708;53.124;23.190;2023-06-19T09:29:46;6.22;;;5.15;;
32214;SDS011;18708;53.124;23.190;2023-06-19T09:32:23;5.22;;;4.82;;
32214;SDS011;18708;53.124;23.190;2023-06-19T09:34:54;6.38;;;4.82;;
32214;SDS011;18708;53.124;23.190;2023-06-19T09:37:24;5.60;;;4.78;;
32214;SDS011;18708;53.124;23.190;2023-06-19T09:39:57;5.05;;;4.55;;
32214;SDS011;18708;53.124;23.190;2023-06-19T09:42:26;5.35;;;4.32;;
32214;SDS011;18708;53.124;23.190;2023-06-19T09:45:00;6.40;;;4.45;;
32214;SDS011;18708;53.124;23.190;2023-06-19T09:47:42;5.38;;;4.47;;
32214;SDS011;18708;53.124;23.190;2023-06-19T09:50:11;4.50;;;3.90;;
32214;SDS011;18708;53.124;23.190;2023-06-19T09:52:38;5.22;;;4.80;;
32214;SDS011;18708;53.124;23.190;2023-06-19T09:55:05;4.95;;;4.20;;
32214;SDS011;18708;53.124;23.190;2023-06-19T09:57:32;4.57;;;3.85;;
32214;SDS011;18708;53.124;23.190;2023-06-19T09:59:58;5.25;;;4.63;;
32214;SDS011;18708;53.124;23.190;2023-06-19T10:02:34;6.03;;;4.60;;
32214;SDS011;18708;53.124;23.190;2023-06-19T10:05:00;5.13;;;4.10;;
32214;SDS011;18708;53.124;23.190;2023-06-19T10:07:32;4.30;;;4.00;;
32214;SDS011;18708;53.124;23.190;2023-06-19T10:10:09;4.55;;;3.95;;
32214;SDS011;18708;53.124;23.190;2023-06-19T10:12:38;7.25;;;4.53;;
32214;SDS011;18708;53.124;23.190;2023-06-19T10:15:09;5.25;;;3.50;;
32214;SDS011;18708;53.124;23.190;2023-06-19T10:17:52;4.07;;;3.47;;
32214;SDS011;18708;53.124;23.190;2023-06-19T10:20:25;4.68;;;4.00;;
32214;SDS011;18708;53.124;23.190;2023-06-19T10:22:51;3.88;;;3.58;;
32214;SDS011;18708;53.124;23.190;2023-06-19T10:25:39;4.03;;;3.58;;
32214;SDS011;18708;53.124;23.190;2023-06-19T10:28:16;4.35;;;3.85;;
32214;SDS011;18708;53.124;23.190;2023-06-19T10:30:42;3.83;;;3.53;;
32214;SDS011;18708;53.124;23.190;2023-06-19T10:33:07;3.90;;;3.60;;
32214;SDS011;18708;53.124;23.190;2023-06-19T10:35:39;4.53;;;4.13;;
32214;SDS011;18708;53.124;23.190;2023-06-19T10:38:08;5.32;;;4.40;;
32214;SDS011;18708;53.124;23.190;2023-06-19T10:40:36;6.05;;;4.45;;
32214;SDS011;18708;53.124;23.190;2023-06-19T10:43:02;4.28;;;3.78;;
32214;SDS011;18708;53.124;23.190;2023-06-19T10:45:29;4.07;;;3.67;;
32214;SDS011;18708;53.124;23.190;2023-06-19T10:47:55;6.70;;;3.42;;
32214;SDS011;18708;53.124;23.190;2023-06-19T10:50:21;6.63;;;4.40;;
32214;SDS011;18708;53.124;23.190;2023-06-19T10:52:48;5.10;;;4.22;;
32214;SDS011;18708;53.124;23.190;2023-06-19T10:55:17;4.50;;;3.72;;
32214;SDS011;18708;53.124;23.190;2023-06-19T10:57:46;4.32;;;3.92;;
32214;SDS011;18708;53.124;23.190;2023-06-19T11:00:26;4.13;;;3.72;;
32214;SDS011;18708;53.124;23.190;2023-06-19T11:02:54;4.57;;;4.18;;
32214;SDS011;18708;53.124;23.190;2023-06-19T11:05:21;4.63;;;4.22;;
32214;SDS011;18708;53.124;23.190;2023-06-19T11:07:58;4.07;;;3.67;;
32214;SDS011;18708;53.124;23.190;2023-06-19T11:10:25;4.57;;;4.10;;
32214;SDS011;18708;53.124;23.190;2023-06-19T11:12:56;5.43;;;4.43;;
32214;SDS011;18708;53.124;23.190;2023-06-19T11:15:29;6.43;;;3.88;;
32214;SDS011;18708;53.124;23.190;2023-06-19T11:20:22;5.22;;;3.70;;
32214;SDS011;18708;53.124;23.190;2023-06-19T11:22:53;5.97;;;4.07;;
32214;SDS011;18708;53.124;23.190;2023-06-19T11:25:20;6.15;;;3.83;;
32214;SDS011;18708;53.124;23.190;2023-06-19T11:27:46;4.07;;;3.78;;
32214;SDS011;18708;53.124;23.190;2023-06-19T11:30:17;5.38;;;3.60;;
32214;SDS011;18708;53.124;23.190;2023-06-19T11:32:45;4.25;;;3.58;;
32214;SDS011;18708;53.124;23.190;2023-06-19T11:35:15;4.25;;;3.85;;
32214;SDS011;18708;53.124;23.190;2023-06-19T11:37:41;4.10;;;3.67;;
32214;SDS011;18708;53.124;23.190;2023-06-19T11:40:08;4.10;;;3.75;;
32214;SDS011;18708;53.124;23.190;2023-06-19T11:42:46;4.22;;;3.83;;
32214;SDS011;18708;53.124;23.190;2023-06-19T11:45:19;5.85;;;4.00;;
32214;SDS011;18708;53.124;23.190;2023-06-19T11:47:45;4.32;;;3.92;;
32214;SDS011;18708;53.124;23.190;2023-06-19T11:50:11;4.97;;;3.63;;
32214;SDS011;18708;53.124;23.190;2023-06-19T11:52:42;4.97;;;3.90;;
32214;SDS011;18708;53.124;23.190;2023-06-19T11:55:10;4.20;;;3.72;;
32214;SDS011;18708;53.124;23.190;2023-06-19T11:57:35;4.45;;;3.47;;
32214;SDS011;18708;53.124;23.190;2023-06-19T12:00:02;3.92;;;3.25;;
32214;SDS011;18708;53.124;23.190;2023-06-19T12:02:32;4.70;;;4.13;;
32214;SDS011;18708;53.124;23.190;2023-06-19T12:04:58;4.00;;;3.35;;
32214;SDS011;18708;53.124;23.190;2023-06-19T12:07:24;4.95;;;3.20;;
32214;SDS011;18708;53.124;23.190;2023-06-19T12:09:50;5.72;;;4.15;;
32214;SDS011;18708;53.124;23.190;2023-06-19T12:12:17;4.05;;;3.55;;
32214;SDS011;18708;53.124;23.190;2023-06-19T12:14:42;3.97;;;3.67;;
32214;SDS011;18708;53.124;23.190;2023-06-19T12:17:08;4.35;;;3.95;;
32214;SDS011;18708;53.124;23.190;2023-06-19T12:19:35;4.05;;;3.67;;
32214;SDS011;18708;53.124;23.190;2023-06-19T12:22:00;4.60;;;3.80;;
32214;SDS011;18708;53.124;23.190;2023-06-19T12:24:26;4.18;;;3.78;;
32214;SDS011;18708;53.124;23.190;2023-06-19T12:26:52;5.10;;;4.15;;
32214;SDS011;18708;53.124;23.190;2023-06-19T12:29:17;4.40;;;4.00;;
32214;SDS011;18708;53.124;23.190;2023-06-19T12:31:45;4.55;;;3.50;;
32214;SDS011;18708;53.124;23.190;2023-06-19T12:34:11;3.88;;;3.58;;
32214;SDS011;18708;53.124;23.190;2023-06-19T12:36:37;5.20;;;4.70;;
32214;SDS011;18708;53.124;23.190;2023-06-19T12:39:02;5.57;;;4.68;;
32214;SDS011;18708;53.124;23.190;2023-06-19T12:41:31;5.63;;;4.93;;
32214;SDS011;18708;53.124;23.190;2023-06-19T12:43:56;8.32;;;4.47;;
32214;SDS011;18708;53.124;23.190;2023-06-19T12:46:22;4.80;;;4.30;;
32214;SDS011;18708;53.124;23.190;2023-06-19T12:48:48;6.18;;;4.07;;
32214;SDS011;18708;53.124;23.190;2023-06-19T12:51:16;7.22;;;4.03;;
32214;SDS011;18708;53.124;23.190;2023-06-19T12:53:43;4.25;;;3.90;;
32214;SDS011;18708;53.124;23.190;2023-06-19T12:56:09;3.70;;;3.40;;
32214;SDS011;18708;53.124;23.190;2023-06-19T12:58:34;4.38;;;3.83;;
32214;SDS011;18708;53.124;23.190;2023-06-19T13:01:00;4.93;;;3.55;;
32214;SDS011;18708;53.124;23.190;2023-06-19T13:03:26;3.45;;;3.15;;
32214;SDS011;18708;53.124;23.190;2023-06-19T13:05:51;4.05;;;3.65;;
32214;SDS011;18708;53.124;23.190;2023-06-19T13:08:17;3.92;;;3.50;;
32214;SDS011;18708;53.124;23.190;2023-06-19T13:10:43;4.55;;;3.65;;
32214;SDS011;18708;53.124;23.190;2023-06-19T13:13:08;4.53;;;3.97;;
32214;SDS011;18708;53.124;23.190;2023-06-19T13:15:35;5.28;;;3.63;;
32214;SDS011;18708;53.124;23.190;2023-06-19T13:18:01;4.25;;;3.85;;
32214;SDS011;18708;53.124;23.190;2023-06-19T13:20:27;4.13;;;3.55;;
32214;SDS011;18708;53.124;23.190;2023-06-19T13:22:53;4.20;;;3.78;;
32214;SDS011;18708;53.124;23.190;2023-06-19T13:25:19;4.32;;;3.92;;
32214;SDS011;18708;53.124;23.190;2023-06-19T13:27:44;4.80;;;3.92;;
32214;SDS011;18708;53.124;23.190;2023-06-19T13:30:11;4.38;;;3.97;;
32214;SDS011;18708;53.124;23.190;2023-06-19T13:32:37;5.45;;;3.25;;
32214;SDS011;18708;53.124;23.190;2023-06-19T13:35:03;3.92;;;3.60;;
32214;SDS011;18708;53.124;23.190;2023-06-19T13:37:30;4.60;;;4.20;;
32214;SDS011;18708;53.124;23.190;2023-06-19T13:39:56;4.20;;;3.60;;
32214;SDS011;18708;53.124;23.190;2023-06-19T13:42:23;3.60;;;3.30;;
32214;SDS011;18708;53.124;23.190;2023-06-19T13:44:48;3.35;;;3.13;;
32214;SDS011;18708;53.124;23.190;2023-06-19T13:47:14;3.65;;;3.35;;
32214;SDS011;18708;53.124;23.190;2023-06-19T13:49:39;5.28;;;3.85;;
32214;SDS011;18708;53.124;23.190;2023-06-19T13:52:05;4.57;;;3.92;;
32214;SDS011;18708;53.124;23.190;2023-06-19T13:54:32;4.00;;;3.65;;
32214;SDS011;18708;53.124;23.190;2023-06-19T13:56:58;5.15;;;4.13;;
32214;SDS011;18708;53.124;23.190;2023-06-19T13:59:24;4.20;;;3.80;;
32214;SDS011;18708;53.124;23.190;2023-06-19T14:01:50;4.32;;;3.92;;
32214;SDS011;18708;53.124;23.190;2023-06-19T14:04:15;7.10;;;4.70;;
32214;SDS011;18708;53.124;23.190;2023-06-19T14:06:44;4.78;;;4.38;;
32214;SDS011;18708;53.124;23.190;2023-06-19T14:09:09;4.72;;;4.32;;
32214;SDS011;18708;53.124;23.190;2023-06-19T14:11:35;5.03;;;4.25;;
32214;SDS011;18708;53.124;23.190;2023-06-19T14:14:01;3.90;;;3.50;;
32214;SDS011;18708;53.124;23.190;2023-06-19T14:16:26;4.78;;;4.18;;
32214;SDS011;18708;53.124;23.190;2023-06-19T14:18:52;4.63;;;4.13;;
32214;SDS011;18708;53.124;23.190;2023-06-19T14:21:18;6.00;;;4.72;;
32214;SDS011;18708;53.124;23.190;2023-06-19T14:23:43;4.45;;;4.05;;
32214;SDS011;18708;53.124;23.190;2023-06-19T14:26:12;6.70;;;4.60;;
32214;SDS011;18708;53.124;23.190;2023-06-19T14:28:38;4.72;;;4.28;;
32214;SDS011;18708;53.124;23.190;2023-06-19T14:31:07;4.18;;;3.78;;
32214;SDS011;18708;53.124;23.190;2023-06-19T14:33:32;4.85;;;4.45;;
32214;SDS011;18708;53.124;23.190;2023-06-19T14:36:00;4.95;;;3.70;;